sensor_id;sensor_type;location;lat;lon;timestamp;P1;durP1;ratioP1;P2;durP2;ratioP2
42978;SDS011;28616;44.746;19.678;2023-03-14T00:00:48;44.20;;;18.20;;
42978;SDS011;28616;44.746;19.678;2023-03-14T00:03:13;39.00;;;17.25;;
42978;SDS011;28616;44.746;19.678;2023-03-14T00:05:39;48.35;;;21.13;;
42978;SDS011;28616;44.746;19.678;2023-03-14T00:08:05;47.20;;;20.20;;
42978;SDS011;28616;44.746;19.678;2023-03-14T00:10:30;48.67;;;19.70;;
42978;SDS011;28616;44.746;19.678;2023-03-14T00:12:56;47.30;;;18.13;;
42978;SDS011;28616;44.746;19.678;2023-03-14T00:15:22;46.78;;;18.75;;
42978;SDS011;28616;44.746;19.678;2023-03-14T00:17:47;39.95;;;17.20;;
42978;SDS011;28616;44.746;19.678;2023-03-14T00:20:13;49.92;;;19.15;;
42978;SDS011;28616;44.746;19.678;2023-03-14T00:22:39;44.15;;;16.95;;
42978;SDS011;28616;44.746;19.678;2023-03-14T00:25:07;37.08;;;16.25;;
42978;SDS011;28616;44.746;19.678;2023-03-14T00:27:34;45.38;;;19.05;;
42978;SDS011;28616;44.746;19.678;2023-03-14T00:30:02;43.90;;;17.83;;
42978;SDS011;28616;44.746;19.678;2023-03-14T00:32:28;45.58;;;19.35;;
42978;SDS011;28616;44.746;19.678;2023-03-14T00:34:54;45.65;;;19.67;;
42978;SDS011;28616;44.746;19.678;2023-03-14T00:37:20;59.28;;;21.25;;
42978;SDS011;28616;44.746;19.678;2023-03-14T00:39:45;45.55;;;19.95;;
42978;SDS011;28616;44.746;19.678;2023-03-14T00:42:11;49.83;;;20.48;;
42978;SDS011;28616;44.746;19.678;2023-03-14T00:44:37;43.67;;;17.27;;
42978;SDS011;28616;44.746;19.678;2023-03-14T00:47:02;39.65;;;17.20;;
42978;SDS011;28616;44.746;19.678;2023-03-14T00:49:28;46.88;;;18.95;;
42978;SDS011;28616;44.746;19.678;2023-03-14T00:51:54;51.50;;;21.45;;
42978;SDS011;28616;44.746;19.678;2023-03-14T00:54:20;47.60;;;19.33;;
42978;SDS011;28616;44.746;19.678;2023-03-14T00:56:46;53.03;;;21.42;;
42978;SDS011;28616;44.746;19.678;2023-03-14T00:59:12;63.28;;;24.15;;
42978;SDS011;28616;44.746;19.678;2023-03-14T01:01:38;57.30;;;23.05;;
42978;SDS011;28616;44.746;19.678;2023-03-14T01:04:05;51.00;;;20.90;;
42978;SDS011;28616;44.746;19.678;2023-03-14T01:06:30;45.00;;;18.35;;
42978;SDS011;28616;44.746;19.678;2023-03-14T01:08:57;37.88;;;17.00;;
42978;SDS011;28616;44.746;19.678;2023-03-14T01:11:24;36.70;;;17.05;;
42978;SDS011;28616;44.746;19.678;2023-03-14T01:13:51;34.25;;;15.00;;
42978;SDS011;28616;44.746;19.678;2023-03-14T01:16:17;32.65;;;14.57;;
42978;SDS011;28616;44.746;19.678;2023-03-14T01:18:45;36.20;;;16.70;;
42978;SDS011;28616;44.746;19.678;2023-03-14T01:21:27;42.28;;;17.15;;
42978;SDS011;28616;44.746;19.678;2023-03-14T01:23:55;39.28;;;15.70;;
42978;SDS011;28616;44.746;19.678;2023-03-14T01:26:23;40.78;;;15.65;;
42978;SDS011;28616;44.746;19.678;2023-03-14T01:28:50;42.00;;;16.75;;
42978;SDS011;28616;44.746;19.678;2023-03-14T01:31:18;39.92;;;16.13;;
42978;SDS011;28616;44.746;19.678;2023-03-14T01:33:43;39.13;;;16.15;;
42978;SDS011;28616;44.746;19.678;2023-03-14T01:36:10;35.88;;;15.60;;
42978;SDS011;28616;44.746;19.678;2023-03-14T01:38:36;41.55;;;17.27;;
42978;SDS011;28616;44.746;19.678;2023-03-14T01:41:03;33.85;;;15.70;;
42978;SDS011;28616;44.746;19.678;2023-03-14T01:43:29;42.83;;;17.63;;
42978;SDS011;28616;44.746;19.678;2023-03-14T01:48:44;47.58;;;17.55;;
42978;SDS011;28616;44.746;19.678;2023-03-14T01:51:27;37.92;;;16.70;;
42978;SDS011;28616;44.746;19.678;2023-03-14T01:54:12;36.65;;;17.02;;
42978;SDS011;28616;44.746;19.678;2023-03-14T01:56:43;37.30;;;14.45;;
42978;SDS011;28616;44.746;19.678;2023-03-14T02:01:41;48.22;;;19.00;;
42978;SDS011;28616;44.746;19.678;2023-03-14T02:04:10;45.08;;;18.02;;
42978;SDS011;28616;44.746;19.678;2023-03-14T02:06:42;40.25;;;17.27;;
42978;SDS011;28616;44.746;19.678;2023-03-14T02:09:33;40.88;;;17.05;;
42978;SDS011;28616;44.746;19.678;2023-03-14T02:11:59;38.92;;;17.23;;
42978;SDS011;28616;44.746;19.678;2023-03-14T02:14:28;40.55;;;16.20;;
42978;SDS011;28616;44.746;19.678;2023-03-14T02:17:00;42.38;;;18.65;;
42978;SDS011;28616;44.746;19.678;2023-03-14T02:19:34;49.35;;;21.52;;
42978;SDS011;28616;44.746;19.678;2023-03-14T02:22:22;51.53;;;21.90;;
42978;SDS011;28616;44.746;19.678;2023-03-14T02:24:59;53.42;;;21.52;;
42978;SDS011;28616;44.746;19.678;2023-03-14T02:27:34;49.72;;;19.58;;
42978;SDS011;28616;44.746;19.678;2023-03-14T02:30:03;47.20;;;20.40;;
42978;SDS011;28616;44.746;19.678;2023-03-14T02:32:31;50.28;;;19.63;;
42978;SDS011;28616;44.746;19.678;2023-03-14T02:35:00;50.58;;;21.58;;
42978;SDS011;28616;44.746;19.678;2023-03-14T02:37:33;52.92;;;19.17;;
42978;SDS011;28616;44.746;19.678;2023-03-14T02:40:02;47.75;;;20.77;;
42978;SDS011;28616;44.746;19.678;2023-03-14T02:42:29;45.75;;;18.80;;
42978;SDS011;28616;44.746;19.678;2023-03-14T02:44:59;47.72;;;18.80;;
42978;SDS011;28616;44.746;19.678;2023-03-14T02:47:49;50.33;;;18.45;;
42978;SDS011;28616;44.746;19.678;2023-03-14T02:50:21;50.88;;;18.85;;
42978;SDS011;28616;44.746;19.678;2023-03-14T02:52:50;48.13;;;19.05;;
42978;SDS011;28616;44.746;19.678;2023-03-14T02:55:20;50.92;;;19.58;;
42978;SDS011;28616;44.746;19.678;2023-03-14T02:57:46;47.38;;;17.40;;
42978;SDS011;28616;44.746;19.678;2023-03-14T03:00:12;52.13;;;20.25;;
42978;SDS011;28616;44.746;19.678;2023-03-14T03:02:38;56.47;;;17.48;;
42978;SDS011;28616;44.746;19.678;2023-03-14T03:05:03;45.85;;;18.25;;
42978;SDS011;28616;44.746;19.678;2023-03-14T03:07:29;47.83;;;19.17;;
42978;SDS011;28616;44.746;19.678;2023-03-14T03:09:55;45.78;;;18.48;;
42978;SDS011;28616;44.746;19.678;2023-03-14T03:12:21;50.05;;;18.02;;
42978;SDS011;28616;44.746;19.678;2023-03-14T03:14:46;128.55;;;44.72;;
42978;SDS011;28616;44.746;19.678;2023-03-14T03:17:12;167.60;;;53.70;;
42978;SDS011;28616;44.746;19.678;2023-03-14T03:19:38;134.55;;;46.55;;
42978;SDS011;28616;44.746;19.678;2023-03-14T03:22:04;104.45;;;35.88;;
42978;SDS011;28616;44.746;19.678;2023-03-14T03:24:29;77.32;;;26.92;;
42978;SDS011;28616;44.746;19.678;2023-03-14T03:26:55;53.65;;;20.73;;
42978;SDS011;28616;44.746;19.678;2023-03-14T03:29:21;68.97;;;21.83;;
42978;SDS011;28616;44.746;19.678;2023-03-14T03:31:46;62.72;;;22.25;;
42978;SDS011;28616;44.746;19.678;2023-03-14T03:34:12;61.13;;;21.45;;
42978;SDS011;28616;44.746;19.678;2023-03-14T03:36:38;65.15;;;21.52;;
42978;SDS011;28616;44.746;19.678;2023-03-14T03:39:04;59.80;;;23.20;;
42978;SDS011;28616;44.746;19.678;2023-03-14T03:41:30;70.65;;;25.92;;
42978;SDS011;28616;44.746;19.678;2023-03-14T03:43:56;67.05;;;24.23;;
42978;SDS011;28616;44.746;19.678;2023-03-14T03:46:21;63.38;;;27.25;;
42978;SDS011;28616;44.746;19.678;2023-03-14T03:48:48;67.60;;;24.67;;
42978;SDS011;28616;44.746;19.678;2023-03-14T03:51:14;62.53;;;24.35;;
42978;SDS011;28616;44.746;19.678;2023-03-14T03:53:41;64.43;;;24.85;;
42978;SDS011;28616;44.746;19.678;2023-03-14T03:56:08;72.82;;;25.20;;
42978;SDS011;28616;44.746;19.678;2023-03-14T03:58:34;67.90;;;27.02;;
42978;SDS011;28616;44.746;19.678;2023-03-14T04:01:00;70.93;;;25.88;;
42978;SDS011;28616;44.746;19.678;2023-03-14T04:03:26;56.85;;;24.95;;
42978;SDS011;28616;44.746;19.678;2023-03-14T04:06:01;58.45;;;24.55;;
42978;SDS011;28616;44.746;19.678;2023-03-14T04:08:29;52.38;;;23.23;;
42978;SDS011;28616;44.746;19.678;2023-03-14T04:10:58;58.70;;;24.30;;
42978;SDS011;28616;44.746;19.678;2023-03-14T04:13:25;51.00;;;21.63;;
42978;SDS011;28616;44.746;19.678;2023-03-14T04:15:52;56.80;;;26.55;;
42978;SDS011;28616;44.746;19.678;2023-03-14T04:18:18;56.72;;;22.92;;
42978;SDS011;28616;44.746;19.678;2023-03-14T04:20:44;57.40;;;22.33;;
42978;SDS011;28616;44.746;19.678;2023-03-14T04:23:10;54.72;;;23.70;;
42978;SDS011;28616;44.746;19.678;2023-03-14T04:25:36;64.00;;;25.05;;
42978;SDS011;28616;44.746;19.678;2023-03-14T04:28:02;74.72;;;31.00;;
42978;SDS011;28616;44.746;19.678;2023-03-14T04:30:29;105.20;;;38.22;;
42978;SDS011;28616;44.746;19.678;2023-03-14T04:32:55;98.75;;;34.95;;
42978;SDS011;28616;44.746;19.678;2023-03-14T04:35:20;91.03;;;32.00;;
42978;SDS011;28616;44.746;19.678;2023-03-14T04:37:46;87.10;;;30.15;;
42978;SDS011;28616;44.746;19.678;2023-03-14T04:40:14;108.13;;;32.88;;
42978;SDS011;28616;44.746;19.678;2023-03-14T04:42:40;87.53;;;31.77;;
42978;SDS011;28616;44.746;19.678;2023-03-14T04:45:06;82.32;;;31.20;;
42978;SDS011;28616;44.746;19.678;2023-03-14T04:47:32;86.40;;;31.98;;
42978;SDS011;28616;44.746;19.678;2023-03-14T04:49:58;99.82;;;36.00;;
42978;SDS011;28616;44.746;19.678;2023-03-14T04:52:24;105.38;;;36.03;;
42978;SDS011;28616;44.746;19.678;2023-03-14T04:54:50;103.82;;;36.75;;
42978;SDS011;28616;44.746;19.678;2023-03-14T04:57:16;94.93;;;35.55;;
42978;SDS011;28616;44.746;19.678;2023-03-14T04:59:42;109.13;;;39.47;;
42978;SDS011;28616;44.746;19.678;2023-03-14T05:02:08;111.78;;;41.88;;
42978;SDS011;28616;44.746;19.678;2023-03-14T05:04:33;112.00;;;41.17;;
42978;SDS011;28616;44.746;19.678;2023-03-14T05:06:59;91.57;;;40.22;;
42978;SDS011;28616;44.746;19.678;2023-03-14T05:09:25;104.38;;;41.28;;
42978;SDS011;28616;44.746;19.678;2023-03-14T05:11:51;110.18;;;43.70;;
42978;SDS011;28616;44.746;19.678;2023-03-14T05:14:17;94.82;;;38.03;;
42978;SDS011;28616;44.746;19.678;2023-03-14T05:16:43;80.50;;;30.73;;
42978;SDS011;28616;44.746;19.678;2023-03-14T05:19:09;75.65;;;27.33;;
42978;SDS011;28616;44.746;19.678;2023-03-14T05:21:35;61.20;;;25.67;;
42978;SDS011;28616;44.746;19.678;2023-03-14T05:24:01;65.70;;;26.00;;
42978;SDS011;28616;44.746;19.678;2023-03-14T05:26:27;55.17;;;23.85;;
42978;SDS011;28616;44.746;19.678;2023-03-14T05:28:53;47.92;;;20.17;;
42978;SDS011;28616;44.746;19.678;2023-03-14T05:31:19;49.88;;;20.67;;
42978;SDS011;28616;44.746;19.678;2023-03-14T05:33:45;46.70;;;19.13;;
42978;SDS011;28616;44.746;19.678;2023-03-14T05:36:11;44.38;;;21.05;;
42978;SDS011;28616;44.746;19.678;2023-03-14T05:38:36;58.90;;;22.25;;
42978;SDS011;28616;44.746;19.678;2023-03-14T05:41:02;49.00;;;22.45;;
42978;SDS011;28616;44.746;19.678;2023-03-14T05:43:28;50.15;;;23.10;;
42978;SDS011;28616;44.746;19.678;2023-03-14T05:45:54;55.30;;;23.25;;
42978;SDS011;28616;44.746;19.678;2023-03-14T05:48:20;61.53;;;24.75;;
42978;SDS011;28616;44.746;19.678;2023-03-14T05:50:46;66.70;;;28.65;;
42978;SDS011;28616;44.746;19.678;2023-03-14T05:53:12;88.15;;;35.92;;
42978;SDS011;28616;44.746;19.678;2023-03-14T05:55:39;76.05;;;32.65;;
42978;SDS011;28616;44.746;19.678;2023-03-14T05:58:05;87.82;;;33.28;;
42978;SDS011;28616;44.746;19.678;2023-03-14T06:00:31;72.15;;;31.27;;
42978;SDS011;28616;44.746;19.678;2023-03-14T06:02:56;78.93;;;32.25;;
42978;SDS011;28616;44.746;19.678;2023-03-14T06:05:22;74.60;;;33.00;;
42978;SDS011;28616;44.746;19.678;2023-03-14T06:07:48;71.00;;;34.30;;
42978;SDS011;28616;44.746;19.678;2023-03-14T06:10:14;72.22;;;30.70;;
42978;SDS011;28616;44.746;19.678;2023-03-14T06:12:39;64.15;;;28.17;;
42978;SDS011;28616;44.746;19.678;2023-03-14T06:15:05;61.83;;;27.00;;
42978;SDS011;28616;44.746;19.678;2023-03-14T06:17:32;65.78;;;26.67;;
42978;SDS011;28616;44.746;19.678;2023-03-14T06:19:57;60.50;;;26.27;;
42978;SDS011;28616;44.746;19.678;2023-03-14T06:22:23;54.28;;;21.88;;
42978;SDS011;28616;44.746;19.678;2023-03-14T06:24:49;80.72;;;27.35;;
42978;SDS011;28616;44.746;19.678;2023-03-14T06:27:14;73.97;;;27.65;;
42978;SDS011;28616;44.746;19.678;2023-03-14T06:29:40;58.30;;;23.90;;
42978;SDS011;28616;44.746;19.678;2023-03-14T06:32:06;52.67;;;22.60;;
42978;SDS011;28616;44.746;19.678;2023-03-14T06:34:31;50.08;;;18.73;;
42978;SDS011;28616;44.746;19.678;2023-03-14T06:36:57;43.92;;;19.67;;
42978;SDS011;28616;44.746;19.678;2023-03-14T06:39:23;57.58;;;24.92;;
42978;SDS011;28616;44.746;19.678;2023-03-14T06:41:48;74.72;;;31.15;;
42978;SDS011;28616;44.746;19.678;2023-03-14T06:44:14;87.30;;;35.95;;
42978;SDS011;28616;44.746;19.678;2023-03-14T06:46:40;93.68;;;40.53;;
42978;SDS011;28616;44.746;19.678;2023-03-14T06:49:06;82.28;;;37.42;;
42978;SDS011;28616;44.746;19.678;2023-03-14T06:51:31;73.75;;;30.30;;
42978;SDS011;28616;44.746;19.678;2023-03-14T06:53:57;59.33;;;27.27;;
42978;SDS011;28616;44.746;19.678;2023-03-14T06:56:23;70.00;;;28.25;;
42978;SDS011;28616;44.746;19.678;2023-03-14T06:58:49;62.35;;;26.58;;
42978;SDS011;28616;44.746;19.678;2023-03-14T07:01:24;60.05;;;31.13;;
42978;SDS011;28616;44.746;19.678;2023-03-14T07:03:55;56.55;;;24.17;;
42978;SDS011;28616;44.746;19.678;2023-03-14T07:06:21;61.47;;;22.88;;
42978;SDS011;28616;44.746;19.678;2023-03-14T07:08:47;62.25;;;25.23;;
42978;SDS011;28616;44.746;19.678;2023-03-14T07:11:13;52.10;;;24.77;;
42978;SDS011;28616;44.746;19.678;2023-03-14T07:13:39;71.97;;;30.73;;
42978;SDS011;28616;44.746;19.678;2023-03-14T07:16:05;59.78;;;25.20;;
42978;SDS011;28616;44.746;19.678;2023-03-14T07:18:31;63.05;;;27.17;;
42978;SDS011;28616;44.746;19.678;2023-03-14T07:20:57;60.35;;;27.02;;
42978;SDS011;28616;44.746;19.678;2023-03-14T07:23:23;55.47;;;28.88;;
42978;SDS011;28616;44.746;19.678;2023-03-14T07:25:49;53.17;;;23.40;;
42978;SDS011;28616;44.746;19.678;2023-03-14T07:28:16;64.75;;;31.08;;
42978;SDS011;28616;44.746;19.678;2023-03-14T07:30:42;53.97;;;25.48;;
42978;SDS011;28616;44.746;19.678;2023-03-14T07:33:08;54.42;;;22.38;;
42978;SDS011;28616;44.746;19.678;2023-03-14T07:35:33;55.05;;;21.48;;
42978;SDS011;28616;44.746;19.678;2023-03-14T07:37:59;46.38;;;21.30;;
42978;SDS011;28616;44.746;19.678;2023-03-14T07:40:25;42.38;;;19.30;;
42978;SDS011;28616;44.746;19.678;2023-03-14T07:42:50;45.00;;;20.10;;
42978;SDS011;28616;44.746;19.678;2023-03-14T07:45:20;41.28;;;19.65;;
42978;SDS011;28616;44.746;19.678;2023-03-14T07:47:48;49.65;;;21.40;;
42978;SDS011;28616;44.746;19.678;2023-03-14T07:50:24;50.30;;;20.92;;
42978;SDS011;28616;44.746;19.678;2023-03-14T07:52:51;48.53;;;22.08;;
42978;SDS011;28616;44.746;19.678;2023-03-14T07:55:16;48.22;;;21.60;;
42978;SDS011;28616;44.746;19.678;2023-03-14T07:57:42;53.13;;;22.27;;
42978;SDS011;28616;44.746;19.678;2023-03-14T08:00:08;46.83;;;22.60;;
42978;SDS011;28616;44.746;19.678;2023-03-14T08:02:35;46.75;;;21.88;;
42978;SDS011;28616;44.746;19.678;2023-03-14T08:05:02;52.20;;;21.38;;
42978;SDS011;28616;44.746;19.678;2023-03-14T08:07:29;50.47;;;22.27;;
42978;SDS011;28616;44.746;19.678;2023-03-14T08:09:54;40.10;;;19.77;;
42978;SDS011;28616;44.746;19.678;2023-03-14T08:12:20;48.00;;;19.27;;
42978;SDS011;28616;44.746;19.678;2023-03-14T08:14:46;45.05;;;18.13;;
42978;SDS011;28616;44.746;19.678;2023-03-14T08:17:11;34.28;;;16.45;;
42978;SDS011;28616;44.746;19.678;2023-03-14T08:19:37;67.45;;;27.73;;
42978;SDS011;28616;44.746;19.678;2023-03-14T08:22:03;62.05;;;31.60;;
42978;SDS011;28616;44.746;19.678;2023-03-14T08:24:29;134.15;;;73.50;;
42978;SDS011;28616;44.746;19.678;2023-03-14T08:26:56;67.20;;;38.95;;
42978;SDS011;28616;44.746;19.678;2023-03-14T08:29:21;47.90;;;20.27;;
42978;SDS011;28616;44.746;19.678;2023-03-14T08:31:47;47.13;;;24.70;;
42978;SDS011;28616;44.746;19.678;2023-03-14T08:34:14;61.97;;;32.03;;
42978;SDS011;28616;44.746;19.678;2023-03-14T08:36:40;55.30;;;29.83;;
42978;SDS011;28616;44.746;19.678;2023-03-14T08:39:06;55.08;;;31.67;;
42978;SDS011;28616;44.746;19.678;2023-03-14T08:41:32;59.22;;;26.33;;
42978;SDS011;28616;44.746;19.678;2023-03-14T08:43:58;47.28;;;20.83;;
42978;SDS011;28616;44.746;19.678;2023-03-14T08:46:24;44.55;;;21.42;;
42978;SDS011;28616;44.746;19.678;2023-03-14T08:48:49;46.45;;;23.60;;
42978;SDS011;28616;44.746;19.678;2023-03-14T08:51:15;52.22;;;25.27;;
42978;SDS011;28616;44.746;19.678;2023-03-14T08:53:42;40.13;;;20.25;;
42978;SDS011;28616;44.746;19.678;2023-03-14T08:56:07;49.90;;;22.38;;
42978;SDS011;28616;44.746;19.678;2023-03-14T08:58:35;187.30;;;85.68;;
42978;SDS011;28616;44.746;19.678;2023-03-14T09:01:03;60.13;;;27.00;;
42978;SDS011;28616;44.746;19.678;2023-03-14T09:03:30;86.68;;;46.95;;
42978;SDS011;28616;44.746;19.678;2023-03-14T09:05:55;57.55;;;31.25;;
42978;SDS011;28616;44.746;19.678;2023-03-14T09:08:26;87.72;;;47.28;;
42978;SDS011;28616;44.746;19.678;2023-03-14T09:10:51;66.90;;;33.20;;
42978;SDS011;28616;44.746;19.678;2023-03-14T09:13:17;29.85;;;17.77;;
42978;SDS011;28616;44.746;19.678;2023-03-14T09:15:43;36.40;;;17.83;;
42978;SDS011;28616;44.746;19.678;2023-03-14T09:18:08;33.13;;;14.93;;
42978;SDS011;28616;44.746;19.678;2023-03-14T09:20:34;35.28;;;15.50;;
42978;SDS011;28616;44.746;19.678;2023-03-14T09:23:00;55.13;;;23.55;;
42978;SDS011;28616;44.746;19.678;2023-03-14T09:25:25;173.38;;;55.63;;
42978;SDS011;28616;44.746;19.678;2023-03-14T09:30:10;95.13;;;35.15;;
42978;SDS011;28616;44.746;19.678;2023-03-14T09:32:36;68.43;;;25.90;;
42978;SDS011;28616;44.746;19.678;2023-03-14T09:35:03;71.70;;;28.38;;
42978;SDS011;28616;44.746;19.678;2023-03-14T09:37:28;67.13;;;28.75;;
42978;SDS011;28616;44.746;19.678;2023-03-14T09:39:54;59.67;;;24.58;;
42978;SDS011;28616;44.746;19.678;2023-03-14T09:42:21;55.25;;;22.73;;
42978;SDS011;28616;44.746;19.678;2023-03-14T09:47:22;47.47;;;19.27;;
42978;SDS011;28616;44.746;19.678;2023-03-14T09:49:49;34.35;;;17.35;;
42978;SDS011;28616;44.746;19.678;2023-03-14T09:52:26;46.13;;;20.40;;
42978;SDS011;28616;44.746;19.678;2023-03-14T09:55:01;37.08;;;17.00;;
42978;SDS011;28616;44.746;19.678;2023-03-14T09:57:29;92.18;;;36.38;;
42978;SDS011;28616;44.746;19.678;2023-03-14T10:00:00;68.45;;;28.10;;
42978;SDS011;28616;44.746;19.678;2023-03-14T10:02:38;124.93;;;55.58;;
42978;SDS011;28616;44.746;19.678;2023-03-14T10:05:07;129.27;;;50.80;;
42978;SDS011;28616;44.746;19.678;2023-03-14T10:07:41;113.95;;;43.70;;
42978;SDS011;28616;44.746;19.678;2023-03-14T10:10:10;135.10;;;48.67;;
42978;SDS011;28616;44.746;19.678;2023-03-14T10:12:49;146.43;;;58.13;;
42978;SDS011;28616;44.746;19.678;2023-03-14T10:15:34;175.20;;;66.18;;
42978;SDS011;28616;44.746;19.678;2023-03-14T10:18:02;129.55;;;47.65;;
42978;SDS011;28616;44.746;19.678;2023-03-14T10:20:36;237.95;;;85.75;;
42978;SDS011;28616;44.746;19.678;2023-03-14T10:23:04;318.23;;;128.38;;
42978;SDS011;28616;44.746;19.678;2023-03-14T10:25:43;83.60;;;35.75;;
42978;SDS011;28616;44.746;19.678;2023-03-14T10:28:22;124.00;;;52.58;;
42978;SDS011;28616;44.746;19.678;2023-03-14T10:30:53;86.95;;;43.25;;
42978;SDS011;28616;44.746;19.678;2023-03-14T10:33:30;43.60;;;20.90;;
42978;SDS011;28616;44.746;19.678;2023-03-14T10:38:35;26.67;;;14.23;;
42978;SDS011;28616;44.746;19.678;2023-03-14T10:41:03;31.02;;;17.55;;
42978;SDS011;28616;44.746;19.678;2023-03-14T10:43:44;20.73;;;10.95;;
42978;SDS011;28616;44.746;19.678;2023-03-14T10:46:17;36.33;;;17.70;;
42978;SDS011;28616;44.746;19.678;2023-03-14T10:48:44;20.63;;;9.48;;
42978;SDS011;28616;44.746;19.678;2023-03-14T10:53:43;45.92;;;20.60;;
42978;SDS011;28616;44.746;19.678;2023-03-14T10:56:15;43.97;;;18.95;;
42978;SDS011;28616;44.746;19.678;2023-03-14T10:58:47;67.22;;;25.45;;
42978;SDS011;28616;44.746;19.678;2023-03-14T11:01:22;45.40;;;19.08;;
42978;SDS011;28616;44.746;19.678;2023-03-14T11:03:54;25.58;;;10.98;;
42978;SDS011;28616;44.746;19.678;2023-03-14T11:12:00;15.80;;;8.85;;
42978;SDS011;28616;44.746;19.678;2023-03-14T11:14:51;16.93;;;7.20;;
42978;SDS011;28616;44.746;19.678;2023-03-14T11:17:30;25.90;;;9.07;;
42978;SDS011;28616;44.746;19.678;2023-03-14T11:23:21;37.00;;;16.45;;
42978;SDS011;28616;44.746;19.678;2023-03-14T11:28:50;35.10;;;14.60;;
42978;SDS011;28616;44.746;19.678;2023-03-14T11:31:28;24.30;;;11.52;;
42978;SDS011;28616;44.746;19.678;2023-03-14T11:34:01;24.38;;;11.15;;
42978;SDS011;28616;44.746;19.678;2023-03-14T11:36:39;28.35;;;13.10;;
42978;SDS011;28616;44.746;19.678;2023-03-14T11:39:16;16.58;;;8.55;;
42978;SDS011;28616;44.746;19.678;2023-03-14T11:41:44;12.65;;;5.75;;
42978;SDS011;28616;44.746;19.678;2023-03-14T11:44:19;38.83;;;18.23;;
42978;SDS011;28616;44.746;19.678;2023-03-14T11:46:52;19.27;;;7.90;;
42978;SDS011;28616;44.746;19.678;2023-03-14T11:51:55;13.65;;;7.18;;
42978;SDS011;28616;44.746;19.678;2023-03-14T11:54:35;18.50;;;8.47;;
42978;SDS011;28616;44.746;19.678;2023-03-14T11:57:04;15.02;;;7.72;;
42978;SDS011;28616;44.746;19.678;2023-03-14T12:02:21;18.80;;;7.32;;
42978;SDS011;28616;44.746;19.678;2023-03-14T12:10:42;15.45;;;8.10;;
42978;SDS011;28616;44.746;19.678;2023-03-14T12:13:17;20.02;;;7.13;;
42978;SDS011;28616;44.746;19.678;2023-03-14T12:15:57;14.48;;;6.68;;
42978;SDS011;28616;44.746;19.678;2023-03-14T12:18:28;16.30;;;8.07;;
42978;SDS011;28616;44.746;19.678;2023-03-14T12:21:03;14.15;;;6.68;;
42978;SDS011;28616;44.746;19.678;2023-03-14T12:26:24;18.00;;;10.15;;
42978;SDS011;28616;44.746;19.678;2023-03-14T12:28:52;15.68;;;6.65;;
42978;SDS011;28616;44.746;19.678;2023-03-14T12:31:45;17.92;;;8.27;;
42978;SDS011;28616;44.746;19.678;2023-03-14T12:41:42;22.10;;;10.00;;
42978;SDS011;28616;44.746;19.678;2023-03-14T12:46:57;21.55;;;9.20;;
42978;SDS011;28616;44.746;19.678;2023-03-14T12:52:14;25.75;;;11.85;;
42978;SDS011;28616;44.746;19.678;2023-03-14T12:57:53;24.90;;;10.68;;
42978;SDS011;28616;44.746;19.678;2023-03-14T13:00:33;18.08;;;9.45;;
42978;SDS011;28616;44.746;19.678;2023-03-14T13:03:17;18.93;;;9.63;;
42978;SDS011;28616;44.746;19.678;2023-03-14T13:12:18;23.38;;;9.35;;
42978;SDS011;28616;44.746;19.678;2023-03-14T13:14:52;25.45;;;10.30;;
42978;SDS011;28616;44.746;19.678;2023-03-14T13:17:32;23.60;;;8.68;;
42978;SDS011;28616;44.746;19.678;2023-03-14T13:20:00;30.38;;;13.52;;
42978;SDS011;28616;44.746;19.678;2023-03-14T13:22:31;34.22;;;13.43;;
42978;SDS011;28616;44.746;19.678;2023-03-14T13:24:59;44.75;;;15.80;;
42978;SDS011;28616;44.746;19.678;2023-03-14T13:27:29;58.38;;;20.63;;
42978;SDS011;28616;44.746;19.678;2023-03-14T13:29:56;61.03;;;18.15;;
42978;SDS011;28616;44.746;19.678;2023-03-14T13:32:25;35.28;;;12.23;;
42978;SDS011;28616;44.746;19.678;2023-03-14T13:34:55;38.05;;;12.85;;
42978;SDS011;28616;44.746;19.678;2023-03-14T13:37:22;27.75;;;12.85;;
42978;SDS011;28616;44.746;19.678;2023-03-14T13:39:50;35.95;;;16.30;;
42978;SDS011;28616;44.746;19.678;2023-03-14T13:42:20;28.38;;;13.23;;
42978;SDS011;28616;44.746;19.678;2023-03-14T13:44:51;27.13;;;10.57;;
42978;SDS011;28616;44.746;19.678;2023-03-14T13:47:18;109.72;;;40.47;;
42978;SDS011;28616;44.746;19.678;2023-03-14T13:49:46;21.80;;;7.93;;
42978;SDS011;28616;44.746;19.678;2023-03-14T13:55:03;35.15;;;17.45;;
42978;SDS011;28616;44.746;19.678;2023-03-14T13:57:47;32.42;;;14.43;;
42978;SDS011;28616;44.746;19.678;2023-03-14T14:02:53;24.52;;;10.43;;
42978;SDS011;28616;44.746;19.678;2023-03-14T14:05:20;18.42;;;9.13;;
42978;SDS011;28616;44.746;19.678;2023-03-14T14:07:48;15.80;;;7.10;;
42978;SDS011;28616;44.746;19.678;2023-03-14T14:10:17;16.63;;;7.60;;
42978;SDS011;28616;44.746;19.678;2023-03-14T14:15:24;21.75;;;11.25;;
42978;SDS011;28616;44.746;19.678;2023-03-14T14:22:56;18.42;;;5.97;;
42978;SDS011;28616;44.746;19.678;2023-03-14T14:25:22;22.90;;;10.63;;
42978;SDS011;28616;44.746;19.678;2023-03-14T14:27:49;10.00;;;4.80;;
42978;SDS011;28616;44.746;19.678;2023-03-14T14:32:44;10.35;;;5.25;;
42978;SDS011;28616;44.746;19.678;2023-03-14T14:35:25;9.50;;;5.05;;
42978;SDS011;28616;44.746;19.678;2023-03-14T14:37:55;14.43;;;7.78;;
42978;SDS011;28616;44.746;19.678;2023-03-14T14:40:22;12.10;;;4.22;;
42978;SDS011;28616;44.746;19.678;2023-03-14T14:42:49;15.02;;;5.63;;
42978;SDS011;28616;44.746;19.678;2023-03-14T14:45:17;20.85;;;9.38;;
42978;SDS011;28616;44.746;19.678;2023-03-14T14:47:51;14.68;;;5.00;;
42978;SDS011;28616;44.746;19.678;2023-03-14T14:50:29;45.92;;;18.77;;
42978;SDS011;28616;44.746;19.678;2023-03-14T14:52:58;31.95;;;13.23;;
42978;SDS011;28616;44.746;19.678;2023-03-14T14:55:43;7.80;;;3.58;;
42978;SDS011;28616;44.746;19.678;2023-03-14T15:01:14;16.65;;;7.53;;
42978;SDS011;28616;44.746;19.678;2023-03-14T15:03:42;24.73;;;10.93;;
42978;SDS011;28616;44.746;19.678;2023-03-14T15:06:13;22.88;;;9.88;;
42978;SDS011;28616;44.746;19.678;2023-03-14T15:08:40;20.73;;;6.43;;
42978;SDS011;28616;44.746;19.678;2023-03-14T15:11:09;15.15;;;6.03;;
42978;SDS011;28616;44.746;19.678;2023-03-14T15:13:43;14.48;;;5.28;;
42978;SDS011;28616;44.746;19.678;2023-03-14T15:16:10;12.50;;;6.60;;
42978;SDS011;28616;44.746;19.678;2023-03-14T15:18:39;12.07;;;4.35;;
42978;SDS011;28616;44.746;19.678;2023-03-14T15:21:05;7.45;;;2.42;;
42978;SDS011;28616;44.746;19.678;2023-03-14T15:23:30;6.72;;;3.30;;
42978;SDS011;28616;44.746;19.678;2023-03-14T15:25:56;9.43;;;3.53;;
42978;SDS011;28616;44.746;19.678;2023-03-14T15:28:26;10.63;;;4.32;;
42978;SDS011;28616;44.746;19.678;2023-03-14T15:30:53;6.30;;;2.67;;
42978;SDS011;28616;44.746;19.678;2023-03-14T15:33:21;5.40;;;2.78;;
42978;SDS011;28616;44.746;19.678;2023-03-14T15:35:47;8.52;;;4.18;;
42978;SDS011;28616;44.746;19.678;2023-03-14T15:38:15;15.07;;;4.75;;
42978;SDS011;28616;44.746;19.678;2023-03-14T15:40:42;5.40;;;3.10;;